Time;durP1;ratioP1;P1;durP2;ratioP2;P2;SDS_P1;SDS_P2;PMS_P1;PMS_P2;Temp;Humidity;BMP_temperature;BMP_pressure;BME280_temperature;BME280_humidity;BME280_pressure;Samples;Min_cycle;Max_cycle;Signal;HPM_P1;HPM_P2
2022/12/08 00:01:08;;;;;;;17.00;10.93;;;5.50;91.90;;;;;;4953349;28;20174;-71
2022/12/08 00:03:34;;;;;;;20.27;10.50;;;5.50;91.60;;;;;;4949980;28;20585;-72
2022/12/08 00:11:31;;;;;;;18.03;9.97;;;5.50;91.60;;;;;;4955683;28;20194;-72
2022/12/08 00:13:56;;;;;;;18.57;10.57;;;5.50;91.50;;;;;;4958613;28;20190;-72
2022/12/08 00:16:22;;;;;;;15.20;10.83;;;5.40;91.20;;;;;;4956111;28;20186;-72
2022/12/08 00:18:48;;;;;;;14.73;9.53;;;5.40;91.20;;;;;;4956054;28;20589;-72
2022/12/08 00:21:13;;;;;;;18.17;10.33;;;5.40;91.20;;;;;;4956549;28;20194;-72
2022/12/08 00:23:39;;;;;;;16.33;9.13;;;5.40;91.50;;;;;;4956217;28;20183;-72
2022/12/08 00:26:05;;;;;;;17.97;10.57;;;5.40;91.70;;;;;;4952469;28;20681;-72
2022/12/08 00:28:33;;;;;;;19.50;8.93;;;5.40;91.60;;;;;;4954008;28;20210;-71
2022/12/08 00:30:59;;;;;;;14.80;8.93;;;5.50;91.80;;;;;;4959585;28;20191;-72
2022/12/08 00:33:26;;;;;;;21.97;11.60;;;5.40;91.90;;;;;;4956367;28;20242;-72
2022/12/08 00:35:52;;;;;;;21.57;10.27;;;5.40;91.80;;;;;;4953731;28;20308;-71
2022/12/08 00:38:17;;;;;;;24.30;10.77;;;5.40;91.90;;;;;;4955658;28;20644;-71
2022/12/08 00:40:46;;;;;;;19.00;9.73;;;5.30;93.10;;;;;;4954370;28;20241;-71
2022/12/08 00:43:13;;;;;;;16.30;10.40;;;5.30;92.70;;;;;;4955000;28;20183;-72
2022/12/08 00:45:38;;;;;;;24.10;9.77;;;5.30;92.70;;;;;;4956164;28;20190;-72
2022/12/08 00:48:05;;;;;;;23.17;11.10;;;5.30;92.70;;;;;;4949126;28;20179;-71
2022/12/08 00:50:31;;;;;;;18.37;10.57;;;5.30;92.50;;;;;;4953406;28;20187;-70
2022/12/08 00:52:56;;;;;;;20.87;11.73;;;5.30;92.10;;;;;;4951075;28;20275;-72
2022/12/08 00:55:22;;;;;;;19.80;8.97;;;5.30;92.10;;;;;;4953518;28;20229;-72
2022/12/08 00:57:47;;;;;;;23.97;11.23;;;5.30;92.10;;;;;;4952502;28;20194;-73
2022/12/08 01:00:13;;;;;;;24.70;11.43;;;5.40;91.90;;;;;;4952981;28;20273;-72
2022/12/08 01:02:40;;;;;;;25.17;10.80;;;5.40;92.00;;;;;;4953552;28;20826;-72
2022/12/08 01:05:06;;;;;;;22.87;10.00;;;5.40;92.40;;;;;;4955182;28;20209;-72
2022/12/08 01:07:32;;;;;;;18.63;9.73;;;5.40;92.30;;;;;;4952467;28;21422;-71
2022/12/08 01:09:57;;;;;;;20.93;11.57;;;5.40;92.20;;;;;;4956687;28;20315;-72
2022/12/08 01:12:23;;;;;;;18.17;10.63;;;5.50;92.20;;;;;;4952448;28;20234;-71
2022/12/08 01:14:49;;;;;;;20.53;9.90;;;5.50;91.90;;;;;;4954375;28;20903;-73
2022/12/08 01:17:14;;;;;;;16.90;10.03;;;5.50;92.00;;;;;;4950866;28;20187;-71
2022/12/08 01:19:40;;;;;;;17.90;10.67;;;5.50;92.10;;;;;;4953731;28;20277;-72
2022/12/08 01:22:06;;;;;;;19.27;10.13;;;5.50;92.20;;;;;;4953377;28;20567;-72
2022/12/08 01:24:31;;;;;;;15.57;9.20;;;5.50;92.00;;;;;;4953079;28;20194;-72
2022/12/08 01:26:57;;;;;;;17.57;9.33;;;5.60;91.90;;;;;;4958618;28;20187;-71
2022/12/08 01:29:23;;;;;;;22.73;9.67;;;5.60;92.20;;;;;;4953869;28;20297;-73
2022/12/08 01:31:48;;;;;;;17.57;8.53;;;5.60;92.20;;;;;;4954222;28;20661;-71
2022/12/08 01:34:14;;;;;;;14.87;9.03;;;5.60;91.90;;;;;;4951020;28;20215;-72
2022/12/08 01:36:41;;;;;;;13.50;8.60;;;5.60;92.30;;;;;;4956341;28;20198;-72
2022/12/08 01:39:09;;;;;;;13.47;7.73;;;5.60;92.20;;;;;;4950168;28;20187;-72
2022/12/08 01:41:36;;;;;;;13.80;7.40;;;5.60;92.20;;;;;;4949185;28;20186;-72
2022/12/08 01:44:11;;;;;;;16.43;7.27;;;5.60;92.50;;;;;;4947464;28;20592;-73
2022/12/08 01:46:39;;;;;;;14.93;6.77;;;5.60;92.60;;;;;;4947327;28;20179;-72
2022/12/08 01:49:33;;;;;;;11.60;6.00;;;5.60;92.40;;;;;;4951873;28;20186;-72
2022/12/08 01:52:12;;;;;;;10.93;5.63;;;5.50;92.30;;;;;;4953293;28;20206;-73
2022/12/08 01:54:46;;;;;;;9.60;5.37;;;5.50;92.10;;;;;;4949573;28;20234;-71
2022/12/08 01:57:17;;;;;;;5.70;4.77;;;5.40;92.00;;;;;;4935919;28;20712;-71
2022/12/08 01:59:49;;;;;;;10.77;4.43;;;5.40;92.10;;;;;;4951218;28;20195;-73
2022/12/08 02:02:15;;;;;;;6.13;4.60;;;5.40;92.30;;;;;;4951665;28;20202;-72
2022/12/08 02:04:40;;;;;;;7.93;5.33;;;5.40;92.30;;;;;;4955007;28;20221;-72
2022/12/08 02:07:08;;;;;;;6.50;4.23;;;5.40;92.20;;;;;;4949504;28;20183;-71
2022/12/08 02:09:36;;;;;;;6.80;4.53;;;5.40;92.00;;;;;;4957123;28;20211;-73
2022/12/08 02:12:02;;;;;;;7.97;4.63;;;5.30;92.00;;;;;;4952808;28;20179;-73
2022/12/08 02:14:28;;;;;;;5.50;4.67;;;5.40;91.90;;;;;;4951111;28;20703;-72
2022/12/08 02:17:09;;;;;;;7.43;5.43;;;5.30;91.90;;;;;;4956332;28;20195;-73
2022/12/08 02:19:50;;;;;;;6.87;4.30;;;5.30;91.70;;;;;;4951590;28;20195;-72
2022/12/08 02:22:42;;;;;;;6.47;4.03;;;5.30;91.70;;;;;;4949625;28;20214;-72
2022/12/08 02:25:38;;;;;;;6.10;4.00;;;5.30;91.60;;;;;;4953286;28;20200;-72
2022/12/08 02:28:42;;;;;;;4.90;3.37;;;5.30;91.50;;;;;;4950400;28;20198;-73
2022/12/08 02:31:36;;;;;;;4.23;3.73;;;5.30;91.80;;;;;;4952263;28;20879;-72
2022/12/08 02:34:07;;;;;;;4.67;4.10;;;5.20;91.70;;;;;;4950411;28;20524;-73
2022/12/08 02:37:02;;;;;;;7.13;4.10;;;5.20;92.40;;;;;;4950016;28;20201;-72
2022/12/08 02:39:50;;;;;;;4.33;3.60;;;5.20;92.00;;;;;;4954118;28;20190;-73
2022/12/08 02:42:34;;;;;;;17.67;4.10;;;5.20;92.00;;;;;;4950052;28;20202;-72
2022/12/08 02:45:08;;;;;;;11.23;5.23;;;5.20;92.50;;;;;;4948005;28;20179;-72
2022/12/08 02:47:35;;;;;;;6.73;4.47;;;5.10;92.50;;;;;;4947439;28;20184;-72
2022/12/08 02:50:00;;;;;;;8.37;4.80;;;5.10;92.40;;;;;;4952909;28;20183;-72
2022/12/08 02:52:26;;;;;;;7.10;5.47;;;5.10;92.90;;;;;;4954207;28;20197;-70
2022/12/08 02:54:57;;;;;;;8.03;4.87;;;5.10;92.70;;;;;;4951327;28;20293;-71
2022/12/08 02:57:47;;;;;;;14.47;5.30;;;5.10;92.90;;;;;;4952505;28;20261;-72
2022/12/08 03:00:17;;;;;;;5.83;3.53;;;4.90;93.20;;;;;;4952972;28;20194;-72
2022/12/08 03:02:48;;;;;;;10.60;4.73;;;4.90;93.40;;;;;;4950927;28;20499;-72
2022/12/08 03:05:29;;;;;;;5.07;3.77;;;4.90;93.30;;;;;;4949373;28;20579;-72
2022/12/08 03:08:06;;;;;;;8.00;4.23;;;4.90;93.10;;;;;;4952062;28;20194;-71
2022/12/08 03:10:40;;;;;;;6.77;4.73;;;5.00;93.10;;;;;;4953394;28;20724;-72
2022/12/08 03:13:15;;;;;;;5.67;4.87;;;4.90;93.00;;;;;;4945644;28;20213;-72
2022/12/08 03:15:44;;;;;;;6.50;4.23;;;4.90;93.00;;;;;;4948177;28;20328;-72
2022/12/08 03:18:13;;;;;;;5.87;3.87;;;4.90;92.80;;;;;;4955165;28;20205;-72
2022/12/08 03:20:40;;;;;;;8.83;4.80;;;4.90;92.90;;;;;;4956503;28;20190;-72
2022/12/08 03:23:10;;;;;;;7.07;5.17;;;4.90;92.80;;;;;;4951103;28;20175;-71
2022/12/08 03:25:41;;;;;;;10.93;4.10;;;4.90;92.80;;;;;;4950551;28;20183;-72
2022/12/08 03:28:07;;;;;;;4.90;4.30;;;4.80;92.80;;;;;;4948332;28;20334;-71
2022/12/08 03:30:38;;;;;;;5.60;3.90;;;4.80;92.60;;;;;;4955200;28;20261;-71
2022/12/08 03:33:23;;;;;;;8.07;4.63;;;4.80;93.00;;;;;;4951922;28;20193;-71
2022/12/08 03:35:50;;;;;;;6.17;4.00;;;4.80;92.90;;;;;;4948975;28;20225;-72
2022/12/08 03:38:16;;;;;;;6.60;4.10;;;4.80;93.10;;;;;;4948018;28;20190;-73
2022/12/08 03:40:43;;;;;;;6.23;4.70;;;4.80;92.90;;;;;;4953090;28;20178;-72
2022/12/08 03:43:09;;;;;;;8.47;4.97;;;4.80;93.00;;;;;;4951202;28;20190;-73
2022/12/08 03:45:35;;;;;;;7.80;4.43;;;4.80;92.90;;;;;;4953740;28;20801;-72
2022/12/08 03:48:00;;;;;;;8.90;5.80;;;4.70;92.90;;;;;;4957037;28;20183;-70
2022/12/08 03:50:26;;;;;;;7.60;5.00;;;4.70;92.60;;;;;;4958153;28;20703;-71
2022/12/08 03:52:52;;;;;;;5.53;4.93;;;4.80;93.00;;;;;;4957218;28;20202;-71
2022/12/08 03:55:17;;;;;;;12.87;5.10;;;4.80;92.90;;;;;;4957431;28;20210;-72
2022/12/08 03:57:43;;;;;;;6.53;4.17;;;4.70;92.80;;;;;;4955763;28;20178;-72
2022/12/08 04:00:14;;;;;;;7.60;4.80;;;4.80;92.90;;;;;;4953953;28;20218;-72
2022/12/08 04:02:40;;;;;;;5.37;4.40;;;4.70;92.90;;;;;;4939658;28;20642;-72
2022/12/08 04:05:06;;;;;;;11.30;5.27;;;4.80;93.40;;;;;;4936709;28;20203;-73
2022/12/08 04:07:31;;;;;;;7.07;4.40;;;4.80;93.20;;;;;;4958494;28;20222;-72
2022/12/08 04:09:57;;;;;;;4.87;3.83;;;4.80;93.20;;;;;;4955555;28;20707;-72
2022/12/08 04:12:22;;;;;;;17.50;5.30;;;4.80;93.40;;;;;;4955258;28;20562;-72
2022/12/08 04:14:48;;;;;;;14.40;5.47;;;4.90;93.60;;;;;;4957560;28;20228;-72
2022/12/08 04:17:14;;;;;;;8.30;5.40;;;4.90;93.70;;;;;;4949341;28;20186;-71
2022/12/08 04:19:39;;;;;;;12.10;5.90;;;4.80;93.50;;;;;;4954457;28;20250;-72
2022/12/08 04:22:06;;;;;;;8.83;6.10;;;4.70;93.70;;;;;;4953787;28;20170;-72
2022/12/08 04:24:31;;;;;;;10.23;6.03;;;4.70;94.00;;;;;;4955822;28;20191;-72
2022/12/08 04:26:57;;;;;;;11.10;6.00;;;4.70;93.80;;;;;;4951525;28;20679;-73
2022/12/08 04:29:23;;;;;;;7.20;4.67;;;4.80;94.00;;;;;;4947077;28;20293;-72
2022/12/08 04:31:48;;;;;;;6.00;4.83;;;4.80;94.00;;;;;;4956376;28;20178;-71
2022/12/08 04:34:14;;;;;;;5.13;4.53;;;4.80;93.80;;;;;;4949768;28;20179;-72
2022/12/08 04:36:40;;;;;;;10.30;4.60;;;4.80;94.10;;;;;;4951192;28;20201;-72
2022/12/08 04:39:06;;;;;;;9.90;4.63;;;4.90;94.00;;;;;;4953896;28;20176;-72
2022/12/08 04:41:32;;;;;;;7.90;4.17;;;4.90;94.00;;;;;;4956913;28;20183;-72
2022/12/08 04:43:58;;;;;;;6.57;4.17;;;4.80;93.80;;;;;;4954008;28;20681;-72
2022/12/08 04:46:23;;;;;;;9.07;4.47;;;4.90;94.00;;;;;;4933140;28;20278;-72
2022/12/08 04:48:49;;;;;;;7.37;4.90;;;4.90;94.00;;;;;;4958077;28;20178;-72
2022/12/08 04:51:17;;;;;;;8.30;3.70;;;4.90;93.90;;;;;;4934905;28;20325;-72
2022/12/08 04:53:43;;;;;;;5.90;3.97;;;5.00;93.80;;;;;;4935690;28;20249;-72
2022/12/08 04:56:16;;;;;;;12.30;4.83;;;5.00;93.70;;;;;;4953065;28;20241;-72
2022/12/08 04:58:43;;;;;;;10.33;5.50;;;5.10;93.70;;;;;;4951459;28;20676;-72
2022/12/08 05:01:09;;;;;;;7.40;4.53;;;5.10;94.10;;;;;;4951539;28;20191;-71
2022/12/08 05:03:35;;;;;;;6.17;4.73;;;5.20;93.70;;;;;;4954955;28;20190;-71
2022/12/08 05:06:02;;;;;;;7.57;4.17;;;5.20;93.80;;;;;;4950959;28;20217;-71
2022/12/08 05:08:28;;;;;;;9.60;5.30;;;5.30;93.90;;;;;;4931993;28;20673;-73
2022/12/08 05:11:01;;;;;;;8.50;5.50;;;5.30;93.80;;;;;;4954155;28;20194;-72
2022/12/08 05:13:27;;;;;;;8.27;4.67;;;5.30;93.50;;;;;;4948484;28;20199;-70
2022/12/08 05:15:53;;;;;;;6.73;4.67;;;5.30;93.60;;;;;;4929126;28;20215;-71
2022/12/08 05:18:19;;;;;;;11.33;5.83;;;5.40;93.60;;;;;;4951956;28;20198;-70
2022/12/08 05:20:44;;;;;;;14.63;6.57;;;5.40;93.60;;;;;;4933951;28;20760;-70
2022/12/08 05:23:10;;;;;;;19.47;5.43;;;5.40;93.20;;;;;;4930447;28;20238;-70
2022/12/08 05:25:36;;;;;;;8.73;5.60;;;5.40;93.40;;;;;;4936405;28;20243;-70
2022/12/08 05:28:02;;;;;;;14.00;5.67;;;5.50;93.30;;;;;;4951779;28;20180;-70
2022/12/08 05:30:28;;;;;;;11.40;5.27;;;5.50;93.60;;;;;;4947260;28;20215;-70
2022/12/08 05:32:54;;;;;;;9.33;5.03;;;5.50;93.60;;;;;;4933734;28;20194;-69
2022/12/08 05:35:20;;;;;;;8.57;5.50;;;5.50;93.40;;;;;;4951672;28;20273;-70
2022/12/08 05:37:45;;;;;;;6.93;5.30;;;5.50;93.30;;;;;;4945279;28;20179;-70
2022/12/08 05:40:11;;;;;;;7.00;5.33;;;5.50;93.10;;;;;;4952029;28;20193;-70
2022/12/08 05:42:37;;;;;;;10.10;5.83;;;5.50;93.20;;;;;;4954384;28;20216;-70
2022/12/08 05:45:03;;;;;;;7.77;5.00;;;5.50;93.00;;;;;;4930291;28;20732;-71
2022/12/08 05:47:29;;;;;;;5.50;5.00;;;5.50;93.00;;;;;;4948077;28;20226;-74
2022/12/08 05:49:55;;;;;;;9.13;5.33;;;5.50;92.80;;;;;;4947378;28;20322;-68
2022/12/08 05:52:21;;;;;;;8.03;5.70;;;5.40;92.80;;;;;;4949015;28;20192;-70
2022/12/08 05:54:47;;;;;;;10.27;5.23;;;5.40;92.80;;;;;;4934033;28;20225;-70
2022/12/08 05:57:12;;;;;;;9.07;6.13;;;5.40;92.70;;;;;;4946692;28;20191;-70
2022/12/08 05:59:38;;;;;;;10.90;6.47;;;5.40;92.70;;;;;;4949009;28;20186;-71
2022/12/08 06:02:04;;;;;;;16.43;6.73;;;5.40;92.60;;;;;;4950118;28;21003;-70
2022/12/08 06:04:30;;;;;;;10.53;6.43;;;5.30;92.70;;;;;;4946756;28;20684;-70
2022/12/08 06:06:56;;;;;;;11.87;5.93;;;5.30;92.60;;;;;;4956314;28;20193;-69
2022/12/08 06:09:21;;;;;;;10.90;6.27;;;5.20;92.60;;;;;;4936720;28;20185;-70
2022/12/08 06:11:47;;;;;;;9.00;5.73;;;5.20;92.60;;;;;;4949738;28;20580;-70
2022/12/08 06:14:13;;;;;;;14.50;7.83;;;5.20;92.60;;;;;;4932340;28;20179;-69
2022/12/08 06:16:39;;;;;;;15.20;6.30;;;5.20;92.60;;;;;;4932303;28;20219;-69
2022/12/08 06:19:05;;;;;;;6.87;6.20;;;5.20;92.60;;;;;;4957716;28;20212;-70
2022/12/08 06:21:31;;;;;;;12.23;6.87;;;5.20;92.60;;;;;;4938306;28;20584;-71
2022/12/08 06:23:57;;;;;;;9.20;6.37;;;5.20;92.70;;;;;;4950312;28;20262;-70
2022/12/08 06:26:22;;;;;;;19.37;7.53;;;5.30;92.80;;;;;;4949199;28;20257;-69
2022/12/08 06:28:49;;;;;;;13.33;6.67;;;5.30;93.10;;;;;;4949839;28;20269;-70
2022/12/08 06:31:18;;;;;;;10.30;6.70;;;5.40;93.40;;;;;;4957730;28;20976;-69
2022/12/08 06:33:45;;;;;;;10.73;7.10;;;5.50;94.10;;;;;;4953420;28;20191;-69
2022/12/08 06:36:13;;;;;;;10.43;7.47;;;5.70;94.60;;;;;;4951092;28;20202;-69
2022/12/08 06:38:39;;;;;;;17.50;9.10;;;5.90;95.10;;;;;;4948256;28;20194;-69
2022/12/08 06:41:06;;;;;;;11.63;8.13;;;6.20;95.30;;;;;;4950331;28;20257;-69
2022/12/08 06:43:32;;;;;;;13.23;7.37;;;6.30;95.10;;;;;;4959075;28;20182;-69
2022/12/08 06:45:58;;;;;;;10.70;7.33;;;6.50;94.90;;;;;;4954974;28;20190;-70
2022/12/08 06:48:25;;;;;;;11.57;7.80;;;6.60;94.30;;;;;;4946176;28;20243;-67
2022/12/08 06:50:52;;;;;;;16.20;9.10;;;6.80;93.90;;;;;;4952754;28;20190;-69
2022/12/08 06:53:17;;;;;;;16.60;9.07;;;6.90;93.50;;;;;;4938064;28;20179;-69
2022/12/08 06:55:51;;;;;;;13.50;9.00;;;7.00;93.20;;;;;;4952223;28;20352;-68
2022/12/08 06:58:18;;;;;;;15.90;8.90;;;7.10;93.60;;;;;;4959144;28;20568;-69
2022/12/08 07:00:44;;;;;;;11.97;8.33;;;7.20;93.50;;;;;;4945323;28;20179;-69
2022/12/08 07:03:11;;;;;;;18.10;10.33;;;7.30;93.10;;;;;;4940575;28;20178;-69
2022/12/08 07:05:37;;;;;;;16.23;9.37;;;7.40;91.70;;;;;;4935030;28;20197;-70
2022/12/08 07:08:05;;;;;;;16.80;9.47;;;7.40;91.30;;;;;;4950391;28;20185;-70
2022/12/08 07:10:32;;;;;;;14.67;8.33;;;7.30;91.10;;;;;;4952403;28;20184;-69
2022/12/08 07:12:57;;;;;;;13.60;8.90;;;7.30;91.00;;;;;;4948308;28;20268;-69
2022/12/08 07:15:24;;;;;;;15.30;8.33;;;7.30;90.80;;;;;;4930286;28;20242;-69
2022/12/08 07:17:49;;;;;;;16.07;8.70;;;7.30;90.70;;;;;;4930540;28;20183;-69
2022/12/08 07:20:15;;;;;;;18.37;9.37;;;7.30;90.70;;;;;;4949486;28;20218;-69
2022/12/08 07:22:50;;;;;;;14.47;8.40;;;7.40;91.20;;;;;;4949015;28;20175;-68
2022/12/08 07:25:17;;;;;;;16.27;9.17;;;7.50;91.50;;;;;;4947264;28;20201;-69
2022/12/08 07:27:42;;;;;;;14.30;10.10;;;7.60;91.80;;;;;;4952095;28;20183;-70
2022/12/08 07:30:09;;;;;;;17.90;9.13;;;7.70;92.00;;;;;;4950633;28;20183;-71
2022/12/08 07:32:38;;;;;;;19.57;9.43;;;7.90;92.20;;;;;;4936662;28;20179;-69
2022/12/08 07:35:06;;;;;;;18.97;9.87;;;8.10;92.60;;;;;;4953411;28;20354;-69
2022/12/08 07:37:33;;;;;;;23.40;10.93;;;8.30;92.50;;;;;;4954920;28;20257;-69
2022/12/08 07:39:59;;;;;;;22.10;11.87;;;8.50;92.00;;;;;;4957435;28;20175;-68
2022/12/08 07:42:27;;;;;;;21.47;11.77;;;8.80;92.40;;;;;;4953870;28;20187;-70
2022/12/08 07:44:53;;;;;;;19.43;11.77;;;9.10;91.80;;;;;;4952643;28;20210;-71
2022/12/08 07:47:19;;;;;;;21.00;10.83;;;9.40;91.20;;;;;;4952647;28;20665;-70
2022/12/08 07:49:45;;;;;;;24.90;11.30;;;9.70;91.70;;;;;;4949118;28;20973;-70
2022/12/08 07:52:11;;;;;;;28.08;11.25;;;10.20;91.00;;;;;;4951655;28;20665;-70
2022/12/08 07:54:36;;;;;;;20.08;10.15;;;10.60;90.90;;;;;;4949019;28;20207;-70
2022/12/08 07:57:04;;;;;;;20.67;10.77;;;10.80;88.10;;;;;;4950082;28;20238;-70
2022/12/08 07:59:31;;;;;;;19.02;10.52;;;11.10;87.90;;;;;;4947899;28;20207;-70
2022/12/08 08:01:56;;;;;;;21.90;11.73;;;11.30;86.30;;;;;;4949788;28;20193;-70
2022/12/08 08:04:22;;;;;;;18.80;11.48;;;11.50;85.30;;;;;;4954947;28;20190;-70
2022/12/08 08:06:48;;;;;;;21.23;12.07;;;11.70;84.50;;;;;;4955680;28;20194;-68
2022/12/08 08:09:14;;;;;;;21.00;10.93;;;11.90;84.60;;;;;;4934316;28;20197;-69
2022/12/08 08:11:41;;;;;;;18.65;11.70;;;12.20;84.70;;;;;;4951545;28;20194;-70
2022/12/08 08:14:07;;;;;;;22.83;13.25;;;12.50;82.60;;;;;;4953963;28;20175;-69
2022/12/08 08:16:33;;;;;;;19.90;11.55;;;12.60;81.50;;;;;;4952407;28;20179;-71
2022/12/08 08:18:58;;;;;;;14.88;10.43;;;12.80;80.80;;;;;;4954835;28;20698;-70
2022/12/08 08:21:24;;;;;;;18.70;12.23;;;13.10;81.90;;;;;;4953136;28;20186;-69
2022/12/08 08:23:50;;;;;;;21.73;12.13;;;13.40;80.20;;;;;;4950537;28;20945;-70
2022/12/08 08:26:16;;;;;;;22.10;11.52;;;13.50;78.90;;;;;;4936573;28;20190;-70
2022/12/08 08:28:44;;;;;;;15.40;10.43;;;13.40;78.20;;;;;;4953685;28;20234;-70
2022/12/08 08:31:11;;;;;;;20.60;11.23;;;13.30;78.10;;;;;;4955076;28;20178;-70
2022/12/08 08:33:36;;;;;;;15.10;10.30;;;13.20;78.10;;;;;;4952061;28;20920;-70
2022/12/08 08:36:07;;;;;;;24.35;11.40;;;13.10;77.50;;;;;;4953798;28;20246;-70
2022/12/08 08:38:32;;;;;;;30.95;13.80;;;12.80;76.60;;;;;;4948410;28;20281;-69
2022/12/08 08:41:01;;;;;;;36.08;21.02;;;12.80;78.30;;;;;;4952912;28;20289;-70
2022/12/08 08:43:30;;;;;;;42.72;20.13;;;12.60;77.00;;;;;;4955508;28;20197;-69
2022/12/08 08:46:00;;;;;;;30.30;17.15;;;12.40;77.30;;;;;;4954820;28;20673;-70
2022/12/08 08:48:27;;;;;;;21.40;11.93;;;12.30;78.40;;;;;;4954463;28;20193;-70
2022/12/08 08:50:54;;;;;;;16.50;11.45;;;12.20;78.60;;;;;;4955384;28;20198;-70
2022/12/08 08:53:20;;;;;;;20.70;11.38;;;12.10;78.50;;;;;;4934927;28;20214;-70
2022/12/08 08:55:46;;;;;;;19.40;10.18;;;12.00;77.90;;;;;;4953501;28;20210;-69
2022/12/08 08:58:12;;;;;;;20.60;11.40;;;11.90;79.10;;;;;;4936206;28;20190;-70
2022/12/08 09:00:37;;;;;;;19.33;11.20;;;11.80;78.90;;;;;;4954086;28;20679;-70
2022/12/08 09:03:03;;;;;;;18.50;10.77;;;11.80;79.80;;;;;;4952792;28;20186;-70
2022/12/08 09:05:29;;;;;;;22.65;11.68;;;11.80;80.20;;;;;;4935586;28;20277;-70
2022/12/08 09:07:55;;;;;;;15.70;10.13;;;11.80;80.40;;;;;;4951491;28;20209;-70
2022/12/08 09:10:21;;;;;;;18.83;10.45;;;11.90;80.20;;;;;;4957398;28;20229;-70
2022/12/08 09:12:47;;;;;;;17.30;10.23;;;11.90;80.00;;;;;;4954746;28;20242;-70
2022/12/08 09:15:13;;;;;;;13.43;10.43;;;12.00;80.10;;;;;;4946937;28;20218;-69
2022/12/08 09:17:38;;;;;;;14.93;10.30;;;12.00;79.20;;;;;;4952906;28;20668;-70
2022/12/08 09:20:06;;;;;;;15.15;9.55;;;11.90;79.40;;;;;;4950726;28;20187;-69
2022/12/08 09:22:33;;;;;;;15.68;9.07;;;12.00;79.70;;;;;;4950165;28;20701;-70
2022/12/08 09:24:59;;;;;;;10.82;8.18;;;11.90;79.50;;;;;;4955073;28;20611;-70
2022/12/08 09:27:25;;;;;;;20.65;8.75;;;12.00;79.80;;;;;;4935425;28;20189;-69
2022/12/08 09:29:50;;;;;;;13.40;8.05;;;12.00;80.20;;;;;;4933183;28;20767;-70
2022/12/08 09:32:16;;;;;;;11.38;7.57;;;12.10;80.30;;;;;;4955807;28;20618;-73
2022/12/08 09:34:42;;;;;;;12.55;7.50;;;12.20;80.50;;;;;;4939871;28;20222;-72
2022/12/08 09:37:08;;;;;;;14.93;7.80;;;12.30;80.50;;;;;;4945619;28;20415;-73
2022/12/08 09:39:34;;;;;;;10.23;8.13;;;12.40;79.50;;;;;;4950335;28;20286;-73
2022/12/08 09:42:06;;;;;;;7.72;6.32;;;12.50;79.80;;;;;;4954425;28;20183;-73
2022/12/08 09:45:07;;;;;;;11.82;7.40;;;12.50;79.60;;;;;;4948270;28;20730;-73
2022/12/08 09:47:44;;;;;;;9.75;6.00;;;12.70;79.40;;;;;;4939734;28;20642;-73
2022/12/08 09:50:31;;;;;;;13.45;6.68;;;12.90;78.90;;;;;;4936566;28;20250;-73
2022/12/08 09:53:11;;;;;;;7.32;6.45;;;13.10;78.70;;;;;;4932470;28;20287;-70
2022/12/08 09:55:44;;;;;;;8.05;5.53;;;13.40;79.20;;;;;;4953649;28;20218;-71
2022/12/08 09:58:21;;;;;;;9.70;6.13;;;13.70;78.10;;;;;;4948978;28;20194;-70
2022/12/08 10:00:47;;;;;;;8.43;6.05;;;14.00;76.60;;;;;;4946852;28;20784;-74
2022/12/08 10:03:13;;;;;;;8.55;6.38;;;14.10;76.00;;;;;;4954781;28;20188;-73
2022/12/08 10:05:56;;;;;;;6.90;5.60;;;14.40;75.40;;;;;;4949779;28;20221;-70
2022/12/08 10:08:35;;;;;;;7.05;5.32;;;14.50;74.60;;;;;;4949540;28;20209;-71
2022/12/08 10:11:11;;;;;;;9.43;5.63;;;14.50;74.90;;;;;;4951085;28;20178;-71
2022/12/08 10:13:40;;;;;;;5.32;4.45;;;14.30;72.70;;;;;;4935800;28;20194;-69
2022/12/08 10:16:28;;;;;;;6.88;4.68;;;14.30;74.40;;;;;;4949701;28;20271;-71
2022/12/08 10:19:00;;;;;;;6.15;4.32;;;14.30;74.60;;;;;;4949900;28;20179;-71
2022/12/08 10:21:29;;;;;;;10.93;5.95;;;14.10;73.80;;;;;;4950272;28;20198;-71
2022/12/08 10:24:01;;;;;;;7.22;4.97;;;14.00;74.00;;;;;;4929593;28;20195;-71
2022/12/08 10:26:31;;;;;;;5.88;4.50;;;14.00;74.00;;;;;;4931260;28;20294;-72
2022/12/08 10:29:00;;;;;;;6.85;4.50;;;14.00;73.60;;;;;;4926427;28;20183;-69
2022/12/08 10:31:26;;;;;;;8.00;4.20;;;13.90;74.00;;;;;;4948561;28;20195;-70
2022/12/08 10:34:08;;;;;;;4.93;4.45;;;13.80;73.90;;;;;;4947457;28;20183;-69
2022/12/08 10:37:07;;;;;;;4.55;4.18;;;13.90;75.90;;;;;;4948182;28;20655;-69
2022/12/08 10:39:42;;;;;;;6.97;4.45;;;14.30;75.60;;;;;;4949083;28;20217;-69
2022/12/08 10:42:17;;;;;;;10.25;5.35;;;14.60;75.20;;;;;;4953040;28;20185;-70
2022/12/08 10:45:01;;;;;;;5.95;4.75;;;14.90;75.00;;;;;;4932780;28;20185;-70
2022/12/08 10:47:29;;;;;;;5.93;5.20;;;15.50;75.20;;;;;;4931117;28;20183;-69
2022/12/08 10:50:22;;;;;;;9.07;5.38;;;16.20;74.30;;;;;;4951212;28;20189;-69
2022/12/08 10:53:08;;;;;;;9.57;5.63;;;16.90;73.20;;;;;;4927275;28;20265;-69
2022/12/08 10:55:48;;;;;;;10.38;5.35;;;17.80;67.90;;;;;;4932165;28;20783;-69
2022/12/08 10:58:26;;;;;;;6.82;5.35;;;18.40;68.50;;;;;;4945367;28;20187;-72
2022/12/08 11:00:59;;;;;;;11.80;5.75;;;19.20;64.60;;;;;;4928776;28;20206;-71
2022/12/08 11:03:58;;;;;;;9.18;6.10;;;19.60;67.40;;;;;;4922402;28;20931;-69
2022/12/08 11:06:35;;;;;;;6.40;5.80;;;20.00;64.70;;;;;;4881801;29;20299;-70
2022/12/08 11:09:40;;;;;;;5.75;5.03;;;20.40;65.50;;;;;;4887206;29;20674;-70
2022/12/08 11:12:14;;;;;;;12.85;6.28;;;20.80;63.20;;;;;;4891094;29;20247;-68
2022/12/08 11:14:42;;;;;;;7.32;6.60;;;21.20;65.50;;;;;;4887489;29;20225;-69
2022/12/08 11:17:23;;;;;;;10.70;7.50;;;21.40;64.30;;;;;;4893947;29;20575;-70
2022/12/08 11:19:57;;;;;;;8.68;7.15;;;21.50;60.90;;;;;;4887877;29;20478;-68
2022/12/08 11:22:34;;;;;;;8.25;6.47;;;21.40;63.70;;;;;;4887889;29;20192;-69
2022/12/08 11:25:14;;;;;;;10.27;7.38;;;21.40;63.50;;;;;;4892261;29;20195;-67
2022/12/08 11:27:46;;;;;;;9.07;7.13;;;21.40;65.10;;;;;;4890534;29;20208;-70
2022/12/08 11:30:23;;;;;;;10.10;7.38;;;21.50;64.90;;;;;;4876720;29;20196;-69
2022/12/08 11:32:54;;;;;;;7.55;6.07;;;21.70;64.40;;;;;;4893203;29;20721;-70
2022/12/08 11:35:23;;;;;;;6.75;5.90;;;21.80;61.60;;;;;;4886833;29;21804;-71
2022/12/08 11:37:49;;;;;;;6.55;5.93;;;21.80;61.70;;;;;;4886490;29;20208;-71
2022/12/08 11:40:16;;;;;;;5.55;5.00;;;21.50;60.20;;;;;;4885558;29;20603;-70
2022/12/08 11:43:23;;;;;;;4.80;4.40;;;20.90;59.00;;;;;;4918477;28;20616;-70
2022/12/08 11:45:56;;;;;;;5.20;4.75;;;20.70;61.90;;;;;;4949396;28;20218;-71
2022/12/08 11:48:46;;;;;;;7.00;4.97;;;20.30;62.50;;;;;;4953074;28;20977;-71
2022/12/08 11:51:32;;;;;;;6.43;5.00;;;19.70;60.40;;;;;;4946330;28;20662;-72
2022/12/08 11:54:22;;;;;;;5.75;4.68;;;19.10;63.90;;;;;;4941229;28;20194;-70
2022/12/08 11:56:51;;;;;;;3.80;3.45;;;18.60;62.50;;;;;;4941866;28;20203;-71
2022/12/08 11:59:17;;;;;;;5.20;4.35;;;18.10;65.40;;;;;;4949218;28;20190;-70
2022/12/08 12:01:43;;;;;;;4.90;4.50;;;17.90;64.50;;;;;;4946968;28;20931;-71
2022/12/08 12:04:25;;;;;;;5.80;4.13;;;17.40;65.80;;;;;;4951137;28;20199;-70
2022/12/08 12:07:25;;;;;;;7.95;4.57;;;17.30;66.80;;;;;;4948857;28;20194;-72
2022/12/08 12:10:00;;;;;;;4.45;4.13;;;17.20;67.10;;;;;;4949815;28;20183;-70
2022/12/08 12:12:50;;;;;;;5.47;4.65;;;17.10;66.80;;;;;;4946182;28;20182;-70
2022/12/08 12:15:31;;;;;;;6.22;4.05;;;16.90;67.10;;;;;;4948317;28;20296;-70
2022/12/08 12:18:22;;;;;;;4.88;4.47;;;16.60;66.40;;;;;;4946135;28;20187;-71
2022/12/08 12:21:00;;;;;;;6.50;4.07;;;16.40;68.40;;;;;;4948113;28;20244;-71
2022/12/08 12:23:36;;;;;;;5.38;4.75;;;16.20;67.70;;;;;;4948172;28;20215;-74
2022/12/08 12:26:09;;;;;;;5.13;4.63;;;16.20;68.70;;;;;;4946068;28;20229;-72
2022/12/08 12:28:48;;;;;;;6.43;4.47;;;16.40;68.50;;;;;;4949135;28;20183;-72
2022/12/08 12:31:36;;;;;;;11.82;4.80;;;16.50;69.30;;;;;;4929807;28;20193;-72
2022/12/08 12:34:14;;;;;;;5.90;4.85;;;16.60;68.20;;;;;;4948706;28;20183;-71
2022/12/08 12:37:09;;;;;;;5.68;4.95;;;16.80;67.90;;;;;;4933555;28;20214;-72
2022/12/08 12:39:59;;;;;;;6.32;4.93;;;16.90;68.60;;;;;;4947624;28;20210;-72
2022/12/08 12:42:42;;;;;;;6.95;4.53;;;16.90;67.60;;;;;;4950997;28;20704;-73
2022/12/08 12:45:17;;;;;;;5.68;4.72;;;17.10;67.50;;;;;;4949411;28;20199;-71
2022/12/08 12:47:49;;;;;;;6.05;4.68;;;17.00;67.20;;;;;;4944044;28;20278;-71
2022/12/08 12:50:37;;;;;;;8.18;5.03;;;17.10;66.90;;;;;;4946648;28;20190;-72
2022/12/08 12:53:25;;;;;;;5.10;4.40;;;17.00;67.30;;;;;;4945997;28;20199;-72
2022/12/08 12:56:02;;;;;;;7.05;4.05;;;16.80;66.10;;;;;;4941402;28;20223;-72
2022/12/08 12:58:30;;;;;;;6.72;5.07;;;16.70;66.60;;;;;;4941579;28;20895;-72
2022/12/08 13:01:12;;;;;;;4.85;4.35;;;16.60;67.20;;;;;;4946570;28;20186;-73
2022/12/08 13:04:02;;;;;;;5.28;4.78;;;16.50;68.50;;;;;;4940463;28;20861;-72
2022/12/08 13:06:43;;;;;;;5.32;4.65;;;16.50;68.70;;;;;;4943056;28;21321;-73
2022/12/08 13:09:40;;;;;;;7.55;4.60;;;16.20;67.90;;;;;;4948975;28;20186;-73